ホーチミン の空港の天気 - METARとTAF

タンソンニャット国際空港 (ホーチミン) ( VVTS / SGN ) - ベトナム ホーチミン市
飛行場実況気象(Metar)
観測時間08/11 13:30 ICT (08/11 06:30 UTC)
風向・風速西北西 7m/s
視程10km以上
天気現象
全天の8割程度の雲 雲底高度 520m
気温34℃
湿度60%
気圧1006hPa
METARVVTS 110630Z 29014KT 9999 BKN017 34/25 Q1006 NOSIG
過去の天気等 Google飛行場航空写真 Wunderground天気予報

過去48時間のMETAR

飛行場予報(TAF)
発表時間: 8/11 12:00 ICT (8/11 05:00 UTC)
予報対象時間: 11日13時 ICT ~ 12日19時 ICT
風向・風速西 6m/s
視程10km以上
全天の4割程度の雲 雲底高度 520m
11日14時 ICT ~ 11日19時 ICT に一時的に
風向・風速西 8m/s 瞬間風速 16m/s
視程3000m
天気現象雷雨
全天の4割程度の雲 雲底高度 400m
全天の4割程度の積乱雲 雲底高度 460m
12日13時 ICT ~ 12日19時 ICT に一時的に
風向・風速西 8m/s 瞬間風速 15m/s
視程3000m
天気現象雷雨
全天の4割程度の雲 雲底高度 400m
全天の4割程度の積乱雲 雲底高度 460m
TAF VVTS 110500Z 1106/1212 27012KT 9999 SCT017
TEMPO 1107/1112 27015G32KT 3000 TSRA SCT013 SCT015CB
TEMPO 1206/1212 28015G30KT 3000 TSRA SCT013 SCT015CB